In Rescue
 
Open Full Screen Window  High Contrast Mode
Wind Gusting 00 knots
04
September 19, 2019 4:55 PM EDT
Weather Information
Wind Direction
  310 °
Wind Speed
  04 kt (5 mph)
Wind Gust
  00 kt (0 mph)
Altimeter
30.10 in
Visibility
10 SM
Temperature
26° C
79° F
Dewpoint
16° C
61° F
Humidity
54%
Sky Condition
Clear
VFR

METAR KCVX 192055Z AUTO 31004KT 10SM CLR 26/16 A3010 RMK AO2 T02590164

FAA Disclaimer: The data displayed is for advisory purposes only and is not to be used for flight planning or operations.